Ljuta — J8B4127 — position and weather

sailwx.info

Track history (hours):
 
Tides and Currents Weather Stations Pressure Air Temp Water Temp Dewpoint Dewpoint Depression Visibility Wind Speed Wind Dir Waves Ship Positions

Ljuta

Last reported at 2014-Aug-17 13:09 UTC. Time now 2014-Aug-21 08:22 UTC.
Position N 45°01' E 036°35'.

Length 177 m; draft 6.3 m.

Type: Cargo ship. MMSI: 377715000.

Date/timePositionNaut miles runAvg speedWind from/ knotsBaromVisibWave heightAir tempDewpointWater temp
2014-Aug-17 13:09N 45°01' E 036°35'0 0.0
2014-Aug-17 08:19N 45°01' E 036°35'0 0.0
2014-Aug-16 18:28N 45°01' E 036°35'0 0.0
2014-Aug-16 17:31N 45°01' E 036°35'0 0.0
2014-Aug-16 16:31N 45°01' E 036°35'0 0.0
2014-Aug-16 15:31N 45°01' E 036°35'0 0.0
2014-Aug-16 14:31N 45°01' E 036°35'0 0.0
2014-Aug-16 13:31N 45°01' E 036°35'0 0.0
2014-Aug-16 12:31N 45°01' E 036°35'0 0.0
2014-Aug-16 11:31N 45°01' E 036°35'0 0.0
2014-Aug-16 10:31N 45°01' E 036°35'0 0.0
2014-Aug-16 09:31N 45°01' E 036°35'0 0.0
2014-Aug-16 07:31N 45°01' E 036°35'0 0.0
2014-Aug-16 06:31N 45°01' E 036°35'0 0.0
2014-Aug-16 05:28N 45°01' E 036°35'0 0.0
2014-Aug-15 22:31N 45°01' E 036°35'0 0.0
2014-Aug-15 21:28N 45°01' E 036°35'0 0.0
2014-Aug-15 20:31N 45°01' E 036°35'0 0.0
2014-Aug-15 19:31N 45°01' E 036°35'0 0.0
2014-Aug-15 17:13N 45°01' E 036°35'0 0.0
2014-Aug-15 16:31N 45°01' E 036°35'0 0.0
2014-Aug-15 15:31N 45°01' E 036°35'0 0.0
2014-Aug-15 14:31N 45°01' E 036°35'0 0.0
2014-Aug-15 13:31N 45°01' E 036°35'0 0.0
2014-Aug-15 12:31N 45°01' E 036°35'0 0.0
2014-Aug-15 11:32N 45°01' E 036°35'0 0.0
2014-Aug-15 10:32N 45°01' E 036°35'0 0.0
2014-Aug-15 09:32N 45°01' E 036°35'0 0.0
2014-Aug-15 08:32N 45°01' E 036°35'0 0.0
2014-Aug-15 07:29N 45°01' E 036°35'0 0.0
2014-Aug-15 06:32N 45°01' E 036°35'0 0.3
2014-Aug-15 05:34N 45°01' E 036°34'20 9.8
2014-Aug-15 03:33N 44°42' E 036°32'1514.5
2014-Aug-15 02:34N 44°27' E 036°32'1514.3
2014-Aug-15 01:33N 44°13' E 036°32'1812.6
2014-Aug-15 00:06N 44°00' E 036°14'5114.3
2014-Aug-14 20:33N 43°36' E 035°12'1414.3
2014-Aug-14 19:33N 43°29' E 034°54'30113.7
2014-Aug-13 21:31N 41°02' E 029°00'9 9.5
2014-Aug-13 20:31N 40°52' E 029°01'1010.1
2014-Aug-13 19:33N 40°43' E 028°58'6 5.9
2014-Aug-13 18:33N 40°38' E 028°54'1 1.4
2014-Aug-13 17:33N 40°39' E 028°55'1 1.3
2014-Aug-13 16:33N 40°40' E 028°56'2 1.6
2014-Aug-13 15:32N 40°41' E 028°57'2 1.7
2014-Aug-13 14:33N 40°42' E 028°58'2 1.5
2014-Aug-13 13:33N 40°44' E 028°59'1 0.9
2014-Aug-13 12:33N 40°45' E 028°59'1 0.8
2014-Aug-13 11:33N 40°46' E 028°59'1 0.8
2014-Aug-13 10:33N 40°46' E 028°59'1 0.9
2014-Aug-13 09:33N 40°47' E 028°59'7 7.1
2014-Aug-13 08:33N 40°49' E 028°50'4314.0
2014-Aug-13 05:30N 40°45' E 027°54'8712.3
2014-Aug-12 22:24N 40°02' E 026°14'21 9.0
2014-Aug-12 20:03N 39°50' E 025°51'1313.1
2014-Aug-12 19:04N 39°39' E 025°42'713.9
2014-Aug-12 18:33N 39°34' E 025°37'1613.7
2014-Aug-12 17:25N 39°20' E 025°27'2613.9
2014-Aug-12 15:33N 38°56' E 025°14'3213.9
2014-Aug-12 13:17N 38°27' E 024°57'3813.7
2014-Aug-12 10:31N 37°53' E 024°36'1313.3
2014-Aug-12 09:33N 37°41' E 024°30'1414.3
2014-Aug-12 08:33N 37°29' E 024°22'1414.3
2014-Aug-12 07:33N 37°17' E 024°12'1414.1
2014-Aug-12 06:33N 37°05' E 024°02'1414.0
2014-Aug-12 05:33N 36°54' E 023°51'1414.1
2014-Aug-12 04:33N 36°43' E 023°39'1514.6
2014-Aug-12 03:33N 36°33' E 023°27'  
Track history (hours):
 
Tides and Currents Weather Stations Pressure Air Temp Water Temp Dewpoint Dewpoint Depression Visibility Wind Speed Wind Dir Waves Ship Positions

Ljuta

Last reported at 2014-Aug-17 13:09 UTC. Time now 2014-Aug-21 08:22 UTC.
Position N 45°01' E 036°35'.

Length 177 m; draft 6.3 m.

Type: Cargo ship. MMSI: 377715000.

Date/timePositionNaut miles runAvg speedWind from/ knotsBaromVisibWave heightAir tempDewpointWater temp
2014-Aug-17 13:09N 45°01' E 036°35'0 0.0
2014-Aug-17 08:19N 45°01' E 036°35'0 0.0
2014-Aug-16 18:28N 45°01' E 036°35'0 0.0
2014-Aug-16 17:31N 45°01' E 036°35'0 0.0
2014-Aug-16 16:31N 45°01' E 036°35'0 0.0
2014-Aug-16 15:31N 45°01' E 036°35'0 0.0
2014-Aug-16 14:31N 45°01' E 036°35'0 0.0
2014-Aug-16 13:31N 45°01' E 036°35'0 0.0
2014-Aug-16 12:31N 45°01' E 036°35'0 0.0
2014-Aug-16 11:31N 45°01' E 036°35'0 0.0
2014-Aug-16 10:31N 45°01' E 036°35'0 0.0
2014-Aug-16 09:31N 45°01' E 036°35'0 0.0
2014-Aug-16 07:31N 45°01' E 036°35'0 0.0
2014-Aug-16 06:31N 45°01' E 036°35'0 0.0
2014-Aug-16 05:28N 45°01' E 036°35'0 0.0
2014-Aug-15 22:31N 45°01' E 036°35'0 0.0
2014-Aug-15 21:28N 45°01' E 036°35'0 0.0
2014-Aug-15 20:31N 45°01' E 036°35'0 0.0
2014-Aug-15 19:31N 45°01' E 036°35'0 0.0
2014-Aug-15 17:13N 45°01' E 036°35'0 0.0
2014-Aug-15 16:31N 45°01' E 036°35'0 0.0
2014-Aug-15 15:31N 45°01' E 036°35'0 0.0
2014-Aug-15 14:31N 45°01' E 036°35'0 0.0
2014-Aug-15 13:31N 45°01' E 036°35'0 0.0
2014-Aug-15 12:31N 45°01' E 036°35'0 0.0
2014-Aug-15 11:32N 45°01' E 036°35'0 0.0
2014-Aug-15 10:32N 45°01' E 036°35'0 0.0
2014-Aug-15 09:32N 45°01' E 036°35'0 0.0
2014-Aug-15 08:32N 45°01' E 036°35'0 0.0
2014-Aug-15 07:29N 45°01' E 036°35'0 0.0
2014-Aug-15 06:32N 45°01' E 036°35'0 0.3
2014-Aug-15 05:34N 45°01' E 036°34'20 9.8
2014-Aug-15 03:33N 44°42' E 036°32'1514.5
2014-Aug-15 02:34N 44°27' E 036°32'1514.3
2014-Aug-15 01:33N 44°13' E 036°32'1812.6
2014-Aug-15 00:06N 44°00' E 036°14'5114.3
2014-Aug-14 20:33N 43°36' E 035°12'1414.3
2014-Aug-14 19:33N 43°29' E 034°54'30113.7
2014-Aug-13 21:31N 41°02' E 029°00'9 9.5
2014-Aug-13 20:31N 40°52' E 029°01'1010.1
2014-Aug-13 19:33N 40°43' E 028°58'6 5.9
2014-Aug-13 18:33N 40°38' E 028°54'1 1.4
2014-Aug-13 17:33N 40°39' E 028°55'1 1.3
2014-Aug-13 16:33N 40°40' E 028°56'2 1.6
2014-Aug-13 15:32N 40°41' E 028°57'2 1.7
2014-Aug-13 14:33N 40°42' E 028°58'2 1.5
2014-Aug-13 13:33N 40°44' E 028°59'1 0.9
2014-Aug-13 12:33N 40°45' E 028°59'1 0.8
2014-Aug-13 11:33N 40°46' E 028°59'1 0.8
2014-Aug-13 10:33N 40°46' E 028°59'1 0.9
2014-Aug-13 09:33N 40°47' E 028°59'7 7.1
2014-Aug-13 08:33N 40°49' E 028°50'4314.0
2014-Aug-13 05:30N 40°45' E 027°54'8712.3
2014-Aug-12 22:24N 40°02' E 026°14'21 9.0
2014-Aug-12 20:03N 39°50' E 025°51'1313.1
2014-Aug-12 19:04N 39°39' E 025°42'713.9
2014-Aug-12 18:33N 39°34' E 025°37'1613.7
2014-Aug-12 17:25N 39°20' E 025°27'2613.9
2014-Aug-12 15:33N 38°56' E 025°14'3213.9
2014-Aug-12 13:17N 38°27' E 024°57'3813.7
2014-Aug-12 10:31N 37°53' E 024°36'1313.3
2014-Aug-12 09:33N 37°41' E 024°30'1414.3
2014-Aug-12 08:33N 37°29' E 024°22'1414.3
2014-Aug-12 07:33N 37°17' E 024°12'1414.1
2014-Aug-12 06:33N 37°05' E 024°02'1414.0
2014-Aug-12 05:33N 36°54' E 023°51'1414.1
2014-Aug-12 04:33N 36°43' E 023°39'1514.6
2014-Aug-12 03:33N 36°33' E 023°27'  

Dump ship's entire track history